cartoonnetworkla.com alexa rank chart, cartoonnetworkla.com alexa rank daily changes

cartoonnetworkla.com alexa rank chart, cartoonnetworkla.com alexa rank daily changes

cartoonnetworkla.com
Actual rank:
49 224

RANK HISTORY

Date Rank Diff
2018/07/20 49 224 +10 629
2018/07/19 38 595 -10 199
2018/07/18 48 794 +12 097
2018/07/17 36 697 -4 527
2018/07/16 41 224 -5 355
2018/07/15 46 579 -9 348
2018/07/14 55 927 +1 034
2018/07/13 54 893 +13 017
2018/07/12 41 876 -382
2018/07/11 42 258 +15 517
2018/07/10 26 741 +3 721
2018/07/09 23 020 -18 667
2018/07/08 41 687 -13 151
2018/07/07 54 838 +9 314
2018/07/06 45 524 +5 334
2018/07/05 40 190 +3 416
2018/07/04 36 774 +12 872
2018/07/03 23 902 -660
2018/07/02 24 562 -11 341
2018/07/01 35 903 -5 570
2018/06/30 41 473 +2 000
2018/06/29 39 473 -10 985
2018/06/28 50 458 +11 936
2018/06/27 38 522 +13 321
2018/06/26 25 201 -6 955
2018/06/25 32 156 -252
2018/06/24 32 408 -16 660
2018/06/23 49 068 +6 419
2018/06/22 42 649 -3 386
2018/06/21 46 035 -10 504
2018/06/20 56 539 +29 666
2018/06/19 26 873 -9 141
2018/06/18 36 014 -24 333
2018/06/17 60 347 +5 962
2018/06/16 54 385 -26 765
2018/06/15 81 150 +5 274
2018/06/14 75 876 +3 124
2018/06/13 72 752 +40 805
2018/06/12 31 947 +384
2018/06/11 31 563 -21 444
2018/06/10 53 007 -31 305
2018/06/09 84 312 +10 713
2018/06/08 73 599 -577
2018/06/07 74 176 -5 899
2018/06/06 80 075 +42 430
2018/06/05 37 645 -9 558
2018/06/04 47 203 -50 328
2018/06/03 97 531 +38 015
2018/06/02 59 516 -9 994
2018/06/01 69 510 -1 267
2018/05/31 70 777 +7 826
2018/05/30 62 951 +22 094
2018/05/29 40 857 -20 830
2018/05/28 61 687 -10 967
2018/05/27 72 654 +18 192
2018/05/26 54 462 -20 054
2018/05/25 74 516 -16 400
2018/05/24 90 916 +19 091
2018/05/23 71 825 +29 323
2018/05/22 42 502 +9 279
2018/05/21 33 223

WIDGET FOR YOUR SITE

DOMAINS WITH THE NEAREST RANK

Domain Rank
macxdvd.com 49 219
formiche.net 49 220
imageshtorm.com 49 221
kentuckysportsradio.com 49 222
passport.gov.bd 49 223
cartoonnetworkla.com 49 224
tvgids.nl 49 225
karvyonline.com 49 226
learnupon.com 49 227
tubecharm.com 49 228
lifemiles.com 49 229

DOMAINS WITH THE NEAREST RANK BY TLD .com

Domain Rank
itools.com 49 213
audiokinetic.com 49 214
macxdvd.com 49 219
imageshtorm.com 49 221
kentuckysportsradio.com 49 222
cartoonnetworkla.com 49 224
karvyonline.com 49 226
learnupon.com 49 227
tubecharm.com 49 228
lifemiles.com 49 229
doctormalay.com 49 230